sensor_id;sensor_type;location;lat;lon;timestamp;temperature;humidity
1329;DHT22;658;48.820;9.354;2023-06-10T00:00:36;23.60;49.90
1329;DHT22;658;48.820;9.354;2023-06-10T00:04:36;23.60;49.90
1329;DHT22;658;48.820;9.354;2023-06-10T00:08:39;23.50;49.80
1329;DHT22;658;48.820;9.354;2023-06-10T00:12:40;23.50;49.90
1329;DHT22;658;48.820;9.354;2023-06-10T00:16:42;23.50;49.90
1329;DHT22;658;48.820;9.354;2023-06-10T00:20:45;23.50;50.10
1329;DHT22;658;48.820;9.354;2023-06-10T00:24:49;23.50;49.90
1329;DHT22;658;48.820;9.354;2023-06-10T00:28:52;23.50;50.00
1329;DHT22;658;48.820;9.354;2023-06-10T00:32:52;23.50;49.90
1329;DHT22;658;48.820;9.354;2023-06-10T00:36:53;23.50;49.90
1329;DHT22;658;48.820;9.354;2023-06-10T00:40:54;23.50;50.00
1329;DHT22;658;48.820;9.354;2023-06-10T00:44:57;23.50;50.00
1329;DHT22;658;48.820;9.354;2023-06-10T00:48:57;23.50;50.00
1329;DHT22;658;48.820;9.354;2023-06-10T00:52:59;23.50;50.00
1329;DHT22;658;48.820;9.354;2023-06-10T00:57:01;23.50;50.00
1329;DHT22;658;48.820;9.354;2023-06-10T01:01:04;23.50;50.00
1329;DHT22;658;48.820;9.354;2023-06-10T01:05:05;23.40;49.90
1329;DHT22;658;48.820;9.354;2023-06-10T01:09:32;23.50;50.00
1329;DHT22;658;48.820;9.354;2023-06-10T01:13:38;23.40;49.90
1329;DHT22;658;48.820;9.354;2023-06-10T01:21:54;23.50;50.00
1329;DHT22;658;48.820;9.354;2023-06-10T01:26:06;23.40;49.90
1329;DHT22;658;48.820;9.354;2023-06-10T01:30:15;23.40;50.00
1329;DHT22;658;48.820;9.354;2023-06-10T01:34:18;23.40;49.90
1329;DHT22;658;48.820;9.354;2023-06-10T01:38:19;23.40;50.00
1329;DHT22;658;48.820;9.354;2023-06-10T01:42:23;23.40;49.90
1329;DHT22;658;48.820;9.354;2023-06-10T01:46:25;23.40;50.00
1329;DHT22;658;48.820;9.354;2023-06-10T01:50:25;23.40;50.00
1329;DHT22;658;48.820;9.354;2023-06-10T01:54:26;23.40;50.00
1329;DHT22;658;48.820;9.354;2023-06-10T01:58:26;23.30;49.90
1329;DHT22;658;48.820;9.354;2023-06-10T02:02:27;23.30;50.00
1329;DHT22;658;48.820;9.354;2023-06-10T02:06:30;23.30;50.00
1329;DHT22;658;48.820;9.354;2023-06-10T02:10:31;23.40;50.00
1329;DHT22;658;48.820;9.354;2023-06-10T02:14:32;23.30;49.90
1329;DHT22;658;48.820;9.354;2023-06-10T02:18:33;23.30;50.00
1329;DHT22;658;48.820;9.354;2023-06-10T02:22:34;23.30;49.90
1329;DHT22;658;48.820;9.354;2023-06-10T02:26:34;23.30;50.50
1329;DHT22;658;48.820;9.354;2023-06-10T02:30:35;23.30;49.90
1329;DHT22;658;48.820;9.354;2023-06-10T02:34:39;23.30;50.00
1329;DHT22;658;48.820;9.354;2023-06-10T02:38:42;23.30;50.00
1329;DHT22;658;48.820;9.354;2023-06-10T02:42:43;23.30;50.00
1329;DHT22;658;48.820;9.354;2023-06-10T02:46:43;23.30;50.00
1329;DHT22;658;48.820;9.354;2023-06-10T02:50:44;23.30;50.00
1329;DHT22;658;48.820;9.354;2023-06-10T02:54:47;23.30;50.00
1329;DHT22;658;48.820;9.354;2023-06-10T02:58:47;23.30;50.00
1329;DHT22;658;48.820;9.354;2023-06-10T03:02:49;23.30;50.00
1329;DHT22;658;48.820;9.354;2023-06-10T03:06:49;23.30;50.00
1329;DHT22;658;48.820;9.354;2023-06-10T03:10:50;23.30;50.00
1329;DHT22;658;48.820;9.354;2023-06-10T03:14:50;23.30;50.00
1329;DHT22;658;48.820;9.354;2023-06-10T03:18:54;23.20;49.90
1329;DHT22;658;48.820;9.354;2023-06-10T03:22:55;23.30;50.10
1329;DHT22;658;48.820;9.354;2023-06-10T03:26:55;23.30;50.10
1329;DHT22;658;48.820;9.354;2023-06-10T03:30:57;23.20;50.00
1329;DHT22;658;48.820;9.354;2023-06-10T03:34:57;23.20;50.00
1329;DHT22;658;48.820;9.354;2023-06-10T03:38:58;23.20;50.00
1329;DHT22;658;48.820;9.354;2023-06-10T03:42:59;23.20;50.00
1329;DHT22;658;48.820;9.354;2023-06-10T03:47:02;23.20;50.60
1329;DHT22;658;48.820;9.354;2023-06-10T03:51:03;23.20;50.00
1329;DHT22;658;48.820;9.354;2023-06-10T03:55:04;23.20;50.00
1329;DHT22;658;48.820;9.354;2023-06-10T03:59:05;23.20;50.10
1329;DHT22;658;48.820;9.354;2023-06-10T04:03:05;23.20;50.00
1329;DHT22;658;48.820;9.354;2023-06-10T04:07:09;23.20;50.10
1329;DHT22;658;48.820;9.354;2023-06-10T04:11:10;23.20;50.10
1329;DHT22;658;48.820;9.354;2023-06-10T04:15:10;23.20;50.10
1329;DHT22;658;48.820;9.354;2023-06-10T04:19:11;23.20;50.10
1329;DHT22;658;48.820;9.354;2023-06-10T04:23:14;23.20;50.10
1329;DHT22;658;48.820;9.354;2023-06-10T04:27:15;23.20;50.20
1329;DHT22;658;48.820;9.354;2023-06-10T04:31:15;23.10;50.10
1329;DHT22;658;48.820;9.354;2023-06-10T04:35:16;23.10;50.10
1329;DHT22;658;48.820;9.354;2023-06-10T04:39:19;23.10;50.10
1329;DHT22;658;48.820;9.354;2023-06-10T04:43:20;23.10;50.20
1329;DHT22;658;48.820;9.354;2023-06-10T04:47:21;23.10;50.20
1329;DHT22;658;48.820;9.354;2023-06-10T04:51:21;23.10;50.20
1329;DHT22;658;48.820;9.354;2023-06-10T04:55:24;23.10;50.20
1329;DHT22;658;48.820;9.354;2023-06-10T04:59:25;23.10;50.30
1329;DHT22;658;48.820;9.354;2023-06-10T05:03:29;23.10;50.30
1329;DHT22;658;48.820;9.354;2023-06-10T05:07:29;23.10;50.40
1329;DHT22;658;48.820;9.354;2023-06-10T05:11:30;23.10;50.40
1329;DHT22;658;48.820;9.354;2023-06-10T05:15:33;23.10;50.40
1329;DHT22;658;48.820;9.354;2023-06-10T05:19:34;23.10;50.50
1329;DHT22;658;48.820;9.354;2023-06-10T05:23:36;23.10;50.50
1329;DHT22;658;48.820;9.354;2023-06-10T05:27:38;23.10;50.60
1329;DHT22;658;48.820;9.354;2023-06-10T05:31:40;23.10;50.60
1329;DHT22;658;48.820;9.354;2023-06-10T05:35:43;23.10;50.70
1329;DHT22;658;48.820;9.354;2023-06-10T05:39:44;23.10;50.70
1329;DHT22;658;48.820;9.354;2023-06-10T05:43:44;23.10;50.80
1329;DHT22;658;48.820;9.354;2023-06-10T05:47:47;23.00;50.80
1329;DHT22;658;48.820;9.354;2023-06-10T05:51:48;23.10;50.90
1329;DHT22;658;48.820;9.354;2023-06-10T05:55:48;23.10;51.00
1329;DHT22;658;48.820;9.354;2023-06-10T05:59:49;23.10;51.00
1329;DHT22;658;48.820;9.354;2023-06-10T06:03:52;23.00;50.90
1329;DHT22;658;48.820;9.354;2023-06-10T06:07:52;23.00;50.90
1329;DHT22;658;48.820;9.354;2023-06-10T06:11:53;23.00;50.90
1329;DHT22;658;48.820;9.354;2023-06-10T06:15:53;23.00;50.90
1329;DHT22;658;48.820;9.354;2023-06-10T06:19:54;23.00;51.00
1329;DHT22;658;48.820;9.354;2023-06-10T06:23:55;23.00;51.10
1329;DHT22;658;48.820;9.354;2023-06-10T06:27:55;23.00;51.10
1329;DHT22;658;48.820;9.354;2023-06-10T06:31:56;23.00;51.30
1329;DHT22;658;48.820;9.354;2023-06-10T06:35:57;23.00;51.30
1329;DHT22;658;48.820;9.354;2023-06-10T06:39:57;23.00;51.40
1329;DHT22;658;48.820;9.354;2023-06-10T06:43:58;23.00;51.40
1329;DHT22;658;48.820;9.354;2023-06-10T06:48:01;23.10;51.50
1329;DHT22;658;48.820;9.354;2023-06-10T06:52:02;23.00;51.50
1329;DHT22;658;48.820;9.354;2023-06-10T06:56:03;23.10;51.60
1329;DHT22;658;48.820;9.354;2023-06-10T07:00:05;23.00;51.60
1329;DHT22;658;48.820;9.354;2023-06-10T07:04:09;23.10;51.70
1329;DHT22;658;48.820;9.354;2023-06-10T07:08:09;23.10;51.80
1329;DHT22;658;48.820;9.354;2023-06-10T07:12:10;23.10;51.70
1329;DHT22;658;48.820;9.354;2023-06-10T07:16:11;23.00;51.60
1329;DHT22;658;48.820;9.354;2023-06-10T07:20:12;23.00;51.70
1329;DHT22;658;48.820;9.354;2023-06-10T07:24:13;23.10;51.80
1329;DHT22;658;48.820;9.354;2023-06-10T07:28:14;23.00;51.70
1329;DHT22;658;48.820;9.354;2023-06-10T07:32:14;23.10;51.90
1329;DHT22;658;48.820;9.354;2023-06-10T07:36:15;23.00;51.90
1329;DHT22;658;48.820;9.354;2023-06-10T07:40:16;23.10;52.00
1329;DHT22;658;48.820;9.354;2023-06-10T07:44:16;23.10;52.00
1329;DHT22;658;48.820;9.354;2023-06-10T07:48:17;23.10;52.00
1329;DHT22;658;48.820;9.354;2023-06-10T07:52:17;23.10;52.00
1329;DHT22;658;48.820;9.354;2023-06-10T07:56:18;23.10;52.10
1329;DHT22;658;48.820;9.354;2023-06-10T08:00:19;23.10;52.20
1329;DHT22;658;48.820;9.354;2023-06-10T08:04:20;23.10;52.10
1329;DHT22;658;48.820;9.354;2023-06-10T08:08:20;23.10;52.10
1329;DHT22;658;48.820;9.354;2023-06-10T08:12:21;23.10;52.10
1329;DHT22;658;48.820;9.354;2023-06-10T08:16:22;23.10;52.20
1329;DHT22;658;48.820;9.354;2023-06-10T08:20:22;23.10;52.20
1329;DHT22;658;48.820;9.354;2023-06-10T08:24:23;23.10;52.20
1329;DHT22;658;48.820;9.354;2023-06-10T08:28:23;23.10;52.20
1329;DHT22;658;48.820;9.354;2023-06-10T08:32:24;23.10;52.80
1329;DHT22;658;48.820;9.354;2023-06-10T08:36:25;23.10;52.30
1329;DHT22;658;48.820;9.354;2023-06-10T08:40:27;23.10;52.20
1329;DHT22;658;48.820;9.354;2023-06-10T08:44:29;23.10;52.20
1329;DHT22;658;48.820;9.354;2023-06-10T08:48:30;23.20;52.40
1329;DHT22;658;48.820;9.354;2023-06-10T08:52:36;23.10;52.20
1329;DHT22;658;48.820;9.354;2023-06-10T08:56:40;23.10;52.20
1329;DHT22;658;48.820;9.354;2023-06-10T09:00:41;23.10;52.30
1329;DHT22;658;48.820;9.354;2023-06-10T09:04:43;23.10;52.30
1329;DHT22;658;48.820;9.354;2023-06-10T09:08:44;23.10;52.30
1329;DHT22;658;48.820;9.354;2023-06-10T09:12:45;23.20;52.40
1329;DHT22;658;48.820;9.354;2023-06-10T09:16:45;23.20;52.40
1329;DHT22;658;48.820;9.354;2023-06-10T09:20:48;23.20;52.40
1329;DHT22;658;48.820;9.354;2023-06-10T09:24:49;23.20;52.40
1329;DHT22;658;48.820;9.354;2023-06-10T09:28:50;23.20;52.40
1329;DHT22;658;48.820;9.354;2023-06-10T09:32:52;23.20;52.40
1329;DHT22;658;48.820;9.354;2023-06-10T09:36:53;23.20;52.30
1329;DHT22;658;48.820;9.354;2023-06-10T09:40:54;23.20;52.30
1329;DHT22;658;48.820;9.354;2023-06-10T09:44:56;23.20;52.30
1329;DHT22;658;48.820;9.354;2023-06-10T09:48:57;23.30;52.40
1329;DHT22;658;48.820;9.354;2023-06-10T09:52:58;23.20;52.30
1329;DHT22;658;48.820;9.354;2023-06-10T09:57:00;23.20;52.20
1329;DHT22;658;48.820;9.354;2023-06-10T10:01:12;23.30;52.20
1329;DHT22;658;48.820;9.354;2023-06-10T10:05:14;23.30;52.30
1329;DHT22;658;48.820;9.354;2023-06-10T10:09:15;23.30;52.20
1329;DHT22;658;48.820;9.354;2023-06-10T10:13:17;23.30;52.10
1329;DHT22;658;48.820;9.354;2023-06-10T10:17:20;23.30;52.10
1329;DHT22;658;48.820;9.354;2023-06-10T10:21:23;23.30;52.10
1329;DHT22;658;48.820;9.354;2023-06-10T10:25:32;23.30;52.10
1329;DHT22;658;48.820;9.354;2023-06-10T10:29:39;23.30;52.10
1329;DHT22;658;48.820;9.354;2023-06-10T10:33:52;23.30;52.00
1329;DHT22;658;48.820;9.354;2023-06-10T10:37:55;23.30;51.90
1329;DHT22;658;48.820;9.354;2023-06-10T10:41:56;23.30;51.90
1329;DHT22;658;48.820;9.354;2023-06-10T10:46:01;23.30;51.90
1329;DHT22;658;48.820;9.354;2023-06-10T10:50:01;23.30;51.90
1329;DHT22;658;48.820;9.354;2023-06-10T10:54:13;23.30;51.80
1329;DHT22;658;48.820;9.354;2023-06-10T10:58:14;23.40;51.90
1329;DHT22;658;48.820;9.354;2023-06-10T11:02:41;23.40;52.00
1329;DHT22;658;48.820;9.354;2023-06-10T11:06:52;23.40;51.90
1329;DHT22;658;48.820;9.354;2023-06-10T11:10:53;23.40;52.40
1329;DHT22;658;48.820;9.354;2023-06-10T11:14:55;23.40;51.90
1329;DHT22;658;48.820;9.354;2023-06-10T11:18:57;23.40;51.80
1329;DHT22;658;48.820;9.354;2023-06-10T11:23:01;23.40;51.80
1329;DHT22;658;48.820;9.354;2023-06-10T11:27:28;23.40;51.80
1329;DHT22;658;48.820;9.354;2023-06-10T11:31:43;23.40;51.70
1329;DHT22;658;48.820;9.354;2023-06-10T11:35:48;23.40;51.70
1329;DHT22;658;48.820;9.354;2023-06-10T11:39:56;23.50;51.80
1329;DHT22;658;48.820;9.354;2023-06-10T11:44:06;23.40;51.70
1329;DHT22;658;48.820;9.354;2023-06-10T11:48:08;23.40;51.60
1329;DHT22;658;48.820;9.354;2023-06-10T11:52:09;23.50;51.70
1329;DHT22;658;48.820;9.354;2023-06-10T11:56:11;23.50;51.70
1329;DHT22;658;48.820;9.354;2023-06-10T12:00:12;23.50;51.70
1329;DHT22;658;48.820;9.354;2023-06-10T12:04:16;23.50;51.70
1329;DHT22;658;48.820;9.354;2023-06-10T12:08:18;23.50;51.70
1329;DHT22;658;48.820;9.354;2023-06-10T12:12:19;23.50;51.60
1329;DHT22;658;48.820;9.354;2023-06-10T12:16:20;23.50;51.60
1329;DHT22;658;48.820;9.354;2023-06-10T12:20:26;23.50;51.50
1329;DHT22;658;48.820;9.354;2023-06-10T12:24:28;23.50;51.50
1329;DHT22;658;48.820;9.354;2023-06-10T12:28:29;23.50;51.50
1329;DHT22;658;48.820;9.354;2023-06-10T12:36:39;23.50;51.40
1329;DHT22;658;48.820;9.354;2023-06-10T12:40:40;23.50;51.50
1329;DHT22;658;48.820;9.354;2023-06-10T12:44:41;23.50;51.40
1329;DHT22;658;48.820;9.354;2023-06-10T12:48:51;23.50;51.40
1329;DHT22;658;48.820;9.354;2023-06-10T12:52:52;23.60;51.40
1329;DHT22;658;48.820;9.354;2023-06-10T12:56:55;23.60;51.40
1329;DHT22;658;48.820;9.354;2023-06-10T13:00:56;23.60;51.40
1329;DHT22;658;48.820;9.354;2023-06-10T13:04:57;23.60;51.20
1329;DHT22;658;48.820;9.354;2023-06-10T13:08:58;23.60;51.30
1329;DHT22;658;48.820;9.354;2023-06-10T13:13:00;23.60;51.30
1329;DHT22;658;48.820;9.354;2023-06-10T13:17:00;23.60;51.30
1329;DHT22;658;48.820;9.354;2023-06-10T13:21:01;23.60;51.30
1329;DHT22;658;48.820;9.354;2023-06-10T13:25:05;23.60;51.20
1329;DHT22;658;48.820;9.354;2023-06-10T13:29:07;23.60;51.20
1329;DHT22;658;48.820;9.354;2023-06-10T13:33:16;23.60;51.20
1329;DHT22;658;48.820;9.354;2023-06-10T13:37:17;23.60;51.20
1329;DHT22;658;48.820;9.354;2023-06-10T13:41:18;23.60;51.10
1329;DHT22;658;48.820;9.354;2023-06-10T13:45:18;23.60;51.10
1329;DHT22;658;48.820;9.354;2023-06-10T13:49:19;23.60;51.00
1329;DHT22;658;48.820;9.354;2023-06-10T13:53:22;23.70;51.20
1329;DHT22;658;48.820;9.354;2023-06-10T13:57:23;23.70;51.10
1329;DHT22;658;48.820;9.354;2023-06-10T14:01:23;23.70;51.10
1329;DHT22;658;48.820;9.354;2023-06-10T14:05:26;23.70;51.00
1329;DHT22;658;48.820;9.354;2023-06-10T14:09:27;23.70;51.10
1329;DHT22;658;48.820;9.354;2023-06-10T14:13:28;23.70;51.00
1329;DHT22;658;48.820;9.354;2023-06-10T14:17:28;23.70;51.00
1329;DHT22;658;48.820;9.354;2023-06-10T14:21:29;23.70;51.00
1329;DHT22;658;48.820;9.354;2023-06-10T14:25:29;23.80;51.10
1329;DHT22;658;48.820;9.354;2023-06-10T14:29:32;23.80;51.00
1329;DHT22;658;48.820;9.354;2023-06-10T14:33:33;23.80;51.00
1329;DHT22;658;48.820;9.354;2023-06-10T14:37:34;23.80;51.50
1329;DHT22;658;48.820;9.354;2023-06-10T14:41:35;23.80;50.90
1329;DHT22;658;48.820;9.354;2023-06-10T14:45:36;23.80;50.90
1329;DHT22;658;48.820;9.354;2023-06-10T14:49:37;23.80;50.90
1329;DHT22;658;48.820;9.354;2023-06-10T14:53:38;23.80;50.90
1329;DHT22;658;48.820;9.354;2023-06-10T14:57:38;23.80;50.90
1329;DHT22;658;48.820;9.354;2023-06-10T15:01:39;23.80;50.90
1329;DHT22;658;48.820;9.354;2023-06-10T15:05:39;23.80;50.90
1329;DHT22;658;48.820;9.354;2023-06-10T15:09:41;23.80;50.80
1329;DHT22;658;48.820;9.354;2023-06-10T15:13:41;23.80;50.80
1329;DHT22;658;48.820;9.354;2023-06-10T15:17:42;23.80;50.80
1329;DHT22;658;48.820;9.354;2023-06-10T15:21:42;23.80;50.70
1329;DHT22;658;48.820;9.354;2023-06-10T15:25:43;23.90;50.80
1329;DHT22;658;48.820;9.354;2023-06-10T15:29:44;23.90;50.80
1329;DHT22;658;48.820;9.354;2023-06-10T15:33:45;23.90;50.80
1329;DHT22;658;48.820;9.354;2023-06-10T15:37:45;23.90;50.70
1329;DHT22;658;48.820;9.354;2023-06-10T15:41:48;23.90;50.70
1329;DHT22;658;48.820;9.354;2023-06-10T15:45:49;23.90;50.70
1329;DHT22;658;48.820;9.354;2023-06-10T15:49:49;23.80;50.60
1329;DHT22;658;48.820;9.354;2023-06-10T15:53:50;23.90;50.70
1329;DHT22;658;48.820;9.354;2023-06-10T15:57:51;23.90;50.50
1329;DHT22;658;48.820;9.354;2023-06-10T16:01:54;23.90;50.60
1329;DHT22;658;48.820;9.354;2023-06-10T16:05:54;23.90;50.50
1329;DHT22;658;48.820;9.354;2023-06-10T16:09:57;23.90;50.50
1329;DHT22;658;48.820;9.354;2023-06-10T16:13:58;23.90;50.50
1329;DHT22;658;48.820;9.354;2023-06-10T16:18:00;23.90;50.40
1329;DHT22;658;48.820;9.354;2023-06-10T16:22:01;23.90;50.40
1329;DHT22;658;48.820;9.354;2023-06-10T16:26:02;24.00;50.50
1329;DHT22;658;48.820;9.354;2023-06-10T16:30:03;24.00;50.50
1329;DHT22;658;48.820;9.354;2023-06-10T16:34:04;23.90;50.30
1329;DHT22;658;48.820;9.354;2023-06-10T16:38:05;24.00;50.40
1329;DHT22;658;48.820;9.354;2023-06-10T16:42:05;24.00;50.30
1329;DHT22;658;48.820;9.354;2023-06-10T16:46:06;24.00;50.30
1329;DHT22;658;48.820;9.354;2023-06-10T16:50:07;24.00;50.40
1329;DHT22;658;48.820;9.354;2023-06-10T16:54:08;24.00;50.30
1329;DHT22;658;48.820;9.354;2023-06-10T16:58:11;24.10;50.40
1329;DHT22;658;48.820;9.354;2023-06-10T17:02:11;24.00;50.30
1329;DHT22;658;48.820;9.354;2023-06-10T17:06:12;24.10;50.30
1329;DHT22;658;48.820;9.354;2023-06-10T17:10:15;24.10;50.30
1329;DHT22;658;48.820;9.354;2023-06-10T17:14:18;24.10;50.30
1329;DHT22;658;48.820;9.354;2023-06-10T17:18:18;24.10;50.30
1329;DHT22;658;48.820;9.354;2023-06-10T17:22:19;24.10;50.30
1329;DHT22;658;48.820;9.354;2023-06-10T17:26:22;24.10;50.20
1329;DHT22;658;48.820;9.354;2023-06-10T17:30:23;24.10;50.20
1329;DHT22;658;48.820;9.354;2023-06-10T17:34:23;24.10;50.20
1329;DHT22;658;48.820;9.354;2023-06-10T17:38:24;24.10;50.30
1329;DHT22;658;48.820;9.354;2023-06-10T17:42:25;24.10;50.30
1329;DHT22;658;48.820;9.354;2023-06-10T17:46:25;24.10;50.30
1329;DHT22;658;48.820;9.354;2023-06-10T17:50:26;24.10;50.20
1329;DHT22;658;48.820;9.354;2023-06-10T17:54:26;24.10;50.20
1329;DHT22;658;48.820;9.354;2023-06-10T17:58:27;24.10;50.20
1329;DHT22;658;48.820;9.354;2023-06-10T18:02:27;24.10;50.20
1329;DHT22;658;48.820;9.354;2023-06-10T18:06:28;24.20;50.30
1329;DHT22;658;48.820;9.354;2023-06-10T18:10:29;24.20;50.30
1329;DHT22;658;48.820;9.354;2023-06-10T18:14:29;24.20;50.20
1329;DHT22;658;48.820;9.354;2023-06-10T18:18:30;24.20;50.20
1329;DHT22;658;48.820;9.354;2023-06-10T18:22:31;24.20;50.20
1329;DHT22;658;48.820;9.354;2023-06-10T18:26:33;24.20;50.20
1329;DHT22;658;48.820;9.354;2023-06-10T18:30:34;24.20;50.20
1329;DHT22;658;48.820;9.354;2023-06-10T18:34:35;24.20;50.20
1329;DHT22;658;48.820;9.354;2023-06-10T18:38:36;24.20;50.20
1329;DHT22;658;48.820;9.354;2023-06-10T18:42:36;24.20;50.20
1329;DHT22;658;48.820;9.354;2023-06-10T18:46:39;24.20;50.20
1329;DHT22;658;48.820;9.354;2023-06-10T18:50:40;24.20;50.20
1329;DHT22;658;48.820;9.354;2023-06-10T18:54:41;24.20;50.10
1329;DHT22;658;48.820;9.354;2023-06-10T18:58:43;24.20;50.10
1329;DHT22;658;48.820;9.354;2023-06-10T19:02:46;24.20;50.10
1329;DHT22;658;48.820;9.354;2023-06-10T19:06:48;24.30;50.30
1329;DHT22;658;48.820;9.354;2023-06-10T19:10:48;24.30;50.20
1329;DHT22;658;48.820;9.354;2023-06-10T19:14:49;24.30;50.20
1329;DHT22;658;48.820;9.354;2023-06-10T19:18:50;24.20;50.20
1329;DHT22;658;48.820;9.354;2023-06-10T19:22:51;24.30;50.20
1329;DHT22;658;48.820;9.354;2023-06-10T19:26:54;24.30;50.80
1329;DHT22;658;48.820;9.354;2023-06-10T19:30:55;24.30;50.90
1329;DHT22;658;48.820;9.354;2023-06-10T19:34:55;24.30;50.90
1329;DHT22;658;48.820;9.354;2023-06-10T19:38:56;24.30;50.40
1329;DHT22;658;48.820;9.354;2023-06-10T19:42:56;24.30;50.40
1329;DHT22;658;48.820;9.354;2023-06-10T19:46:58;24.30;50.60
1329;DHT22;658;48.820;9.354;2023-06-10T19:50:59;24.30;50.60
1329;DHT22;658;48.820;9.354;2023-06-10T19:54:59;24.30;50.80
1329;DHT22;658;48.820;9.354;2023-06-10T19:59:00;24.30;50.90
1329;DHT22;658;48.820;9.354;2023-06-10T20:03:05;24.30;51.10
1329;DHT22;658;48.820;9.354;2023-06-10T20:07:08;24.30;51.10
1329;DHT22;658;48.820;9.354;2023-06-10T20:11:10;24.20;51.30
1329;DHT22;658;48.820;9.354;2023-06-10T20:15:11;24.30;51.50
1329;DHT22;658;48.820;9.354;2023-06-10T20:19:11;24.20;51.50
1329;DHT22;658;48.820;9.354;2023-06-10T20:23:12;24.20;51.50
1329;DHT22;658;48.820;9.354;2023-06-10T20:27:13;24.30;51.50
1329;DHT22;658;48.820;9.354;2023-06-10T20:31:14;24.30;51.60
1329;DHT22;658;48.820;9.354;2023-06-10T20:35:15;24.30;51.60
1329;DHT22;658;48.820;9.354;2023-06-10T20:39:18;24.20;51.60
1329;DHT22;658;48.820;9.354;2023-06-10T20:43:21;24.20;51.60
1329;DHT22;658;48.820;9.354;2023-06-10T20:47:21;24.20;51.50
1329;DHT22;658;48.820;9.354;2023-06-10T20:51:22;24.30;51.30
1329;DHT22;658;48.820;9.354;2023-06-10T20:55:23;24.30;51.20
1329;DHT22;658;48.820;9.354;2023-06-10T20:59:23;24.40;51.20
1329;DHT22;658;48.820;9.354;2023-06-10T21:03:24;24.40;51.20
1329;DHT22;658;48.820;9.354;2023-06-10T21:07:25;24.40;51.10
1329;DHT22;658;48.820;9.354;2023-06-10T21:11:26;24.40;51.00
1329;DHT22;658;48.820;9.354;2023-06-10T21:15:26;24.50;51.20
1329;DHT22;658;48.820;9.354;2023-06-10T21:19:27;24.50;51.10
1329;DHT22;658;48.820;9.354;2023-06-10T21:23:28;24.50;51.10
1329;DHT22;658;48.820;9.354;2023-06-10T21:27:29;24.50;51.10
1329;DHT22;658;48.820;9.354;2023-06-10T21:31:29;24.50;51.10
1329;DHT22;658;48.820;9.354;2023-06-10T21:35:30;24.50;51.50
1329;DHT22;658;48.820;9.354;2023-06-10T21:39:31;24.50;51.40
1329;DHT22;658;48.820;9.354;2023-06-10T21:43:32;24.60;51.40
1329;DHT22;658;48.820;9.354;2023-06-10T21:47:32;24.60;51.30
1329;DHT22;658;48.820;9.354;2023-06-10T21:51:33;24.70;51.30
1329;DHT22;658;48.820;9.354;2023-06-10T21:55:33;24.70;51.20
1329;DHT22;658;48.820;9.354;2023-06-10T21:59:34;24.70;51.30
1329;DHT22;658;48.820;9.354;2023-06-10T22:03:38;24.80;51.30
1329;DHT22;658;48.820;9.354;2023-06-10T22:07:39;24.80;51.40
1329;DHT22;658;48.820;9.354;2023-06-10T22:11:40;24.70;50.40
1329;DHT22;658;48.820;9.354;2023-06-10T22:15:40;24.70;50.80
1329;DHT22;658;48.820;9.354;2023-06-10T22:19:41;24.70;50.80
1329;DHT22;658;48.820;9.354;2023-06-10T22:23:44;24.70;51.00
1329;DHT22;658;48.820;9.354;2023-06-10T22:27:47;24.70;51.00
1329;DHT22;658;48.820;9.354;2023-06-10T22:31:50;24.70;50.80
1329;DHT22;658;48.820;9.354;2023-06-10T22:35:51;24.70;50.90
1329;DHT22;658;48.820;9.354;2023-06-10T22:39:54;24.60;50.90
1329;DHT22;658;48.820;9.354;2023-06-10T22:43:54;24.60;50.90
1329;DHT22;658;48.820;9.354;2023-06-10T22:47:55;24.60;50.80
1329;DHT22;658;48.820;9.354;2023-06-10T22:51:56;24.60;50.80
1329;DHT22;658;48.820;9.354;2023-06-10T22:55:57;24.60;50.90
1329;DHT22;658;48.820;9.354;2023-06-10T22:59:58;24.60;50.90
1329;DHT22;658;48.820;9.354;2023-06-10T23:04:01;24.50;50.80
1329;DHT22;658;48.820;9.354;2023-06-10T23:08:04;24.50;50.90
1329;DHT22;658;48.820;9.354;2023-06-10T23:12:05;24.50;50.90
1329;DHT22;658;48.820;9.354;2023-06-10T23:16:06;24.50;51.00
1329;DHT22;658;48.820;9.354;2023-06-10T23:20:07;24.50;51.00
1329;DHT22;658;48.820;9.354;2023-06-10T23:24:09;24.50;51.00
1329;DHT22;658;48.820;9.354;2023-06-10T23:28:10;24.50;51.00
1329;DHT22;658;48.820;9.354;2023-06-10T23:32:11;24.50;51.10
1329;DHT22;658;48.820;9.354;2023-06-10T23:36:12;24.50;51.10
1329;DHT22;658;48.820;9.354;2023-06-10T23:40:14;24.50;51.10
1329;DHT22;658;48.820;9.354;2023-06-10T23:44:15;24.50;51.20
1329;DHT22;658;48.820;9.354;2023-06-10T23:48:16;24.50;51.30
1329;DHT22;658;48.820;9.354;2023-06-10T23:52:16;24.40;51.20
1329;DHT22;658;48.820;9.354;2023-06-10T23:56:19;24.40;51.30
